createdAt,value
2023-01-19T00:00:55.853Z,60.47
2023-01-19T00:03:23.026Z,64.47
2023-01-19T00:05:50.299Z,60.67
2023-01-19T00:08:18.378Z,65.10
2023-01-19T00:10:48.223Z,73.03
2023-01-19T00:13:15.842Z,67.80
2023-01-19T00:15:44.065Z,63.20
2023-01-19T00:18:11.680Z,63.87
2023-01-19T00:20:40.088Z,63.23
2023-01-19T00:23:08.445Z,56.57
2023-01-19T00:25:42.878Z,63.30
2023-01-19T00:28:14.778Z,60.50
2023-01-19T00:30:42.540Z,63.57
2023-01-19T00:33:10.895Z,63.13
2023-01-19T00:35:38.079Z,62.43
2023-01-19T00:38:05.411Z,60.43
2023-01-19T00:40:32.683Z,62.10
2023-01-19T00:43:00.868Z,76.77
2023-01-19T00:45:28.285Z,81.43
2023-01-19T00:47:57.494Z,163.70
2023-01-19T00:50:26.572Z,182.50
2023-01-19T00:52:55.486Z,108.43
2023-01-19T00:55:23.455Z,95.07
2023-01-19T00:57:50.949Z,104.13
2023-01-19T01:00:20.111Z,92.63
2023-01-19T01:02:49.090Z,91.70
2023-01-19T01:05:17.318Z,89.87
2023-01-19T01:07:45.628Z,87.83
2023-01-19T01:10:21.793Z,94.47
2023-01-19T01:12:56.427Z,94.80
2023-01-19T01:15:26.838Z,108.03
2023-01-19T01:17:54.478Z,94.20
2023-01-19T01:20:25.533Z,96.97
2023-01-19T01:22:54.904Z,96.90
2023-01-19T01:25:24.332Z,120.30
2023-01-19T01:27:52.380Z,107.07
2023-01-19T01:30:21.022Z,97.67
2023-01-19T01:32:48.588Z,98.30
2023-01-19T01:35:16.457Z,93.47
2023-01-19T01:37:43.865Z,96.90
2023-01-19T01:40:17.430Z,93.03
2023-01-19T01:42:45.713Z,88.53
2023-01-19T01:45:36.238Z,100.00
2023-01-19T01:48:15.402Z,110.77
2023-01-19T01:51:15.390Z,161.47
2023-01-19T01:53:45.637Z,103.73
2023-01-19T01:56:20.236Z,101.20
2023-01-19T01:58:48.241Z,111.13
2023-01-19T02:01:34.243Z,121.77
2023-01-19T02:04:01.650Z,167.87
2023-01-19T02:06:29.738Z,124.97
2023-01-19T02:09:29.193Z,114.13
2023-01-19T02:12:15.713Z,119.77
2023-01-19T02:14:42.973Z,116.80
2023-01-19T02:17:10.227Z,124.23
2023-01-19T02:19:44.228Z,117.40
2023-01-19T02:22:14.153Z,121.17
2023-01-19T02:24:41.795Z,98.93
2023-01-19T02:27:10.387Z,98.20
2023-01-19T02:29:37.719Z,96.07
2023-01-19T02:32:06.002Z,96.33
2023-01-19T02:34:33.380Z,87.60
2023-01-19T02:37:06.942Z,89.50
2023-01-19T02:39:50.920Z,99.40
2023-01-19T02:42:25.716Z,96.53
2023-01-19T02:44:57.914Z,99.67
2023-01-19T02:47:25.272Z,92.87
2023-01-19T02:50:00.551Z,92.70
2023-01-19T02:52:28.545Z,92.37
2023-01-19T02:55:16.112Z,96.70
2023-01-19T02:58:05.851Z,85.93
2023-01-19T03:01:02.147Z,96.30
2023-01-19T03:03:38.154Z,96.93
2023-01-19T03:06:17.587Z,91.27
2023-01-19T03:08:53.094Z,88.50
2023-01-19T03:11:20.863Z,88.43
2023-01-19T03:14:01.973Z,84.70
2023-01-19T03:17:03.589Z,84.70
2023-01-19T03:19:37.939Z,87.37
2023-01-19T03:22:13.598Z,89.50
2023-01-19T03:24:43.657Z,84.53
2023-01-19T03:27:40.925Z,83.90
2023-01-19T03:30:18.968Z,89.43
2023-01-19T03:32:52.972Z,92.97
2023-01-19T03:35:23.963Z,86.37
2023-01-19T03:37:55.200Z,91.23
2023-01-19T03:40:23.685Z,88.63
2023-01-19T03:42:51.466Z,90.13
2023-01-19T03:45:19.421Z,87.73
2023-01-19T03:47:46.762Z,84.93
2023-01-19T03:50:24.859Z,94.63
2023-01-19T03:53:18.739Z,102.93
2023-01-19T03:55:48.785Z,107.27
2023-01-19T03:58:15.954Z,100.83
2023-01-19T04:00:43.478Z,119.27
2023-01-19T04:03:17.834Z,126.57
2023-01-19T04:05:46.326Z,120.93
2023-01-19T04:08:13.675Z,117.07
2023-01-19T04:10:40.858Z,113.37
2023-01-19T04:13:08.145Z,105.10
2023-01-19T04:15:35.515Z,106.80
2023-01-19T04:18:02.746Z,108.10
2023-01-19T04:20:30.136Z,106.57
2023-01-19T04:23:01.439Z,110.93
2023-01-19T04:25:29.462Z,110.67
2023-01-19T04:27:58.595Z,103.50
2023-01-19T04:30:27.799Z,99.93
2023-01-19T04:32:56.531Z,102.10
2023-01-19T04:35:24.037Z,112.23
2023-01-19T04:37:51.592Z,103.53
2023-01-19T04:40:19.031Z,99.90
2023-01-19T04:42:47.154Z,100.77
2023-01-19T04:45:14.677Z,90.87
2023-01-19T04:47:42.892Z,96.57
2023-01-19T04:50:11.813Z,86.73
2023-01-19T04:52:39.178Z,93.97
2023-01-19T04:55:07.683Z,87.97
2023-01-19T04:57:35.581Z,88.37
2023-01-19T05:00:03.632Z,93.07
2023-01-19T05:02:30.996Z,86.57
2023-01-19T05:04:58.271Z,85.60
2023-01-19T05:07:25.746Z,72.83
2023-01-19T05:09:53.036Z,73.83
2023-01-19T05:12:20.788Z,72.13
2023-01-19T05:14:47.975Z,64.63
2023-01-19T05:17:15.537Z,64.50
2023-01-19T05:19:42.743Z,55.60
2023-01-19T05:22:09.928Z,57.60
2023-01-19T05:24:37.427Z,51.33
2023-01-19T05:27:04.703Z,49.93
2023-01-19T05:29:32.700Z,50.43
2023-01-19T05:31:59.932Z,49.03
2023-01-19T05:34:27.412Z,49.37
2023-01-19T05:36:54.535Z,45.97
2023-01-19T05:39:21.714Z,46.27
2023-01-19T05:41:49.040Z,40.33
2023-01-19T05:44:16.798Z,38.43
2023-01-19T05:46:44.081Z,42.10
2023-01-19T05:49:13.122Z,35.10
2023-01-19T05:51:45.481Z,33.90
2023-01-19T05:54:15.556Z,38.00
2023-01-19T05:56:43.252Z,32.73
2023-01-19T05:59:11.213Z,32.60
2023-01-19T06:01:39.958Z,31.63
2023-01-19T06:04:07.831Z,29.03
2023-01-19T06:06:35.075Z,30.70
2023-01-19T06:09:02.289Z,29.43
2023-01-19T06:11:29.583Z,27.70
2023-01-19T06:13:56.825Z,24.60
2023-01-19T06:16:24.228Z,21.63
2023-01-19T06:18:52.061Z,23.57
2023-01-19T06:21:19.407Z,24.00
2023-01-19T06:23:46.615Z,23.30
2023-01-19T06:26:14.131Z,51.30
2023-01-19T06:28:41.254Z,24.73
2023-01-19T06:31:08.477Z,31.13
2023-01-19T06:33:35.989Z,25.57
2023-01-19T06:36:04.028Z,28.47
2023-01-19T06:38:32.809Z,45.30
2023-01-19T06:41:00.084Z,69.50
2023-01-19T06:43:27.361Z,33.90
2023-01-19T06:45:55.217Z,24.33
2023-01-19T06:48:23.073Z,116.07
2023-01-19T06:50:50.508Z,61.50
2023-01-19T06:53:20.089Z,158.90
2023-01-19T06:55:47.248Z,92.60
2023-01-19T06:58:14.628Z,178.83
2023-01-19T07:00:43.130Z,96.33
2023-01-19T07:03:19.378Z,301.30
2023-01-19T07:05:47.036Z,211.30
2023-01-19T07:08:15.857Z,186.30
2023-01-19T07:11:26.218Z,89.60
2023-01-19T07:13:30.585Z,74.87
2023-01-19T07:15:57.983Z,66.07
2023-01-19T07:18:25.275Z,30.87
2023-01-19T07:20:52.539Z,23.37
2023-01-19T07:23:19.756Z,60.13
2023-01-19T07:25:47.597Z,29.17
2023-01-19T07:28:16.789Z,28.83
2023-01-19T07:30:46.438Z,29.17
2023-01-19T07:33:13.673Z,33.87
2023-01-19T07:35:40.909Z,28.60
2023-01-19T07:38:08.237Z,27.53
2023-01-19T07:40:35.611Z,24.53
2023-01-19T07:43:03.633Z,26.70
2023-01-19T07:45:31.252Z,29.00
2023-01-19T07:47:58.541Z,30.67
2023-01-19T07:50:27.847Z,29.93
2023-01-19T07:52:55.643Z,39.17
2023-01-19T07:55:24.164Z,26.13
2023-01-19T07:57:52.294Z,36.73
2023-01-19T08:00:22.265Z,43.53
2023-01-19T08:02:52.651Z,34.87
2023-01-19T08:05:20.631Z,42.77
2023-01-19T08:07:48.591Z,30.10
2023-01-19T08:10:17.837Z,36.27
2023-01-19T08:12:45.009Z,29.33
2023-01-19T08:15:12.387Z,33.37
2023-01-19T08:17:39.760Z,54.03
2023-01-19T08:20:08.811Z,104.17
2023-01-19T08:22:36.079Z,75.33
2023-01-19T08:25:04.259Z,41.73
2023-01-19T08:27:31.752Z,37.47
2023-01-19T08:29:59.373Z,33.13
2023-01-19T08:32:26.696Z,54.00
2023-01-19T08:34:53.909Z,65.10
2023-01-19T08:37:21.356Z,42.63
2023-01-19T08:39:48.489Z,40.30
2023-01-19T08:42:15.609Z,31.00
2023-01-19T08:44:57.263Z,27.77
2023-01-19T08:47:25.195Z,29.03
2023-01-19T08:49:52.707Z,30.07
2023-01-19T08:52:19.912Z,57.57
2023-01-19T08:54:47.292Z,63.80
2023-01-19T08:57:15.675Z,43.93
2023-01-19T08:59:42.775Z,34.63
2023-01-19T09:02:11.258Z,31.27
2023-01-19T09:04:38.463Z,30.03
2023-01-19T09:09:40.052Z,34.23
2023-01-19T09:12:07.348Z,31.87
2023-01-19T09:14:34.494Z,31.93
2023-01-19T09:17:01.656Z,32.77
2023-01-19T09:19:28.986Z,32.30
2023-01-19T09:21:56.377Z,29.23
2023-01-19T09:24:23.863Z,28.73
2023-01-19T09:26:51.285Z,32.23
2023-01-19T09:29:18.530Z,30.53
2023-01-19T09:31:45.919Z,32.77
2023-01-19T09:34:13.192Z,35.60
2023-01-19T09:36:40.746Z,34.60
2023-01-19T09:39:08.115Z,31.10
2023-01-19T09:41:37.060Z,35.13
2023-01-19T09:44:04.940Z,37.77
2023-01-19T09:46:42.923Z,40.27
2023-01-19T09:49:21.803Z,35.10
2023-01-19T09:51:51.536Z,32.77
2023-01-19T09:54:22.215Z,33.07
2023-01-19T09:56:52.378Z,30.93
2023-01-19T09:59:26.174Z,34.20
2023-01-19T10:01:53.492Z,30.00
2023-01-19T10:04:44.305Z,30.57
2023-01-19T10:07:18.852Z,26.60
2023-01-19T10:10:09.822Z,28.00
2023-01-19T10:12:51.388Z,28.60
2023-01-19T10:15:42.159Z,47.17
2023-01-19T10:18:12.580Z,30.83
2023-01-19T10:20:49.649Z,53.77
2023-01-19T10:23:40.918Z,34.83
2023-01-19T10:26:14.221Z,32.53
2023-01-19T10:28:42.253Z,31.40
2023-01-19T10:31:10.299Z,32.63
2023-01-19T10:33:39.096Z,37.67
2023-01-19T10:36:17.604Z,25.87
2023-01-19T10:38:45.864Z,33.60
2023-01-19T10:41:24.501Z,36.23
2023-01-19T10:44:01.299Z,36.47
2023-01-19T10:46:34.481Z,28.90
2023-01-19T10:49:02.391Z,30.57
2023-01-19T10:51:29.785Z,30.80
2023-01-19T10:54:04.166Z,27.30
2023-01-19T10:56:37.506Z,28.20
2023-01-19T10:59:07.211Z,24.70
2023-01-19T11:01:37.336Z,27.67
2023-01-19T11:04:27.047Z,25.30
2023-01-19T11:07:18.519Z,36.60
2023-01-19T11:09:46.154Z,26.63
2023-01-19T11:12:18.725Z,22.90
2023-01-19T11:14:47.272Z,28.63
2023-01-19T11:17:24.896Z,27.57
2023-01-19T11:20:23.289Z,25.20
2023-01-19T11:23:05.679Z,22.20
2023-01-19T11:25:35.896Z,23.27
2023-01-19T11:28:03.891Z,24.47
2023-01-19T11:30:31.976Z,21.23
2023-01-19T11:32:59.377Z,19.37
2023-01-19T11:35:34.640Z,20.07
2023-01-19T11:38:19.618Z,23.70
2023-01-19T11:40:58.799Z,20.30
2023-01-19T11:43:39.812Z,20.17
2023-01-19T11:46:16.759Z,17.07
2023-01-19T11:48:57.518Z,21.93
2023-01-19T11:51:28.567Z,22.73
2023-01-19T11:53:55.869Z,21.30
2023-01-19T11:56:26.983Z,30.27
2023-01-19T11:58:54.631Z,22.50
2023-01-19T12:01:29.507Z,27.43
2023-01-19T12:04:07.376Z,20.00
2023-01-19T12:06:47.958Z,19.17
2023-01-19T12:09:37.119Z,22.97
2023-01-19T12:12:09.157Z,23.13
2023-01-19T12:14:47.370Z,19.90
2023-01-19T12:17:24.615Z,16.83
2023-01-19T12:19:59.681Z,17.10
2023-01-19T12:22:29.375Z,26.23
2023-01-19T12:25:06.360Z,15.43
2023-01-19T12:27:42.546Z,12.67
2023-01-19T12:30:25.764Z,15.60
2023-01-19T12:33:13.798Z,20.77
2023-01-19T12:36:10.488Z,19.40
2023-01-19T12:38:55.591Z,23.10
2023-01-19T12:41:23.066Z,98.40
2023-01-19T12:44:10.150Z,58.43
2023-01-19T12:46:55.775Z,47.90
2023-01-19T12:49:34.411Z,17.70
2023-01-19T12:52:13.739Z,18.50
2023-01-19T12:54:55.807Z,15.77
2023-01-19T12:58:03.041Z,24.70
2023-01-19T13:00:37.917Z,21.13
2023-01-19T13:03:20.129Z,21.80
2023-01-19T13:05:57.321Z,18.77
2023-01-19T13:08:46.239Z,17.57
2023-01-19T13:11:17.365Z,15.50
2023-01-19T13:13:46.599Z,14.57
2023-01-19T13:16:19.971Z,15.13
2023-01-19T13:18:48.659Z,18.80
2023-01-19T13:21:39.763Z,16.67
2023-01-19T13:24:24.361Z,23.67
2023-01-19T13:26:55.389Z,15.27
2023-01-19T13:29:28.499Z,17.23
2023-01-19T13:32:02.844Z,17.13
2023-01-19T13:34:36.107Z,16.27
2023-01-19T13:37:04.945Z,13.53
2023-01-19T13:39:44.449Z,16.77
2023-01-19T13:42:25.833Z,19.13
2023-01-19T13:44:55.238Z,24.67
2023-01-19T13:47:26.887Z,14.30
2023-01-19T13:49:57.405Z,13.90
2023-01-19T13:52:31.525Z,11.93
2023-01-19T13:55:03.274Z,12.10
2023-01-19T13:57:32.790Z,12.73
2023-01-19T14:00:14.947Z,10.43
2023-01-19T14:03:01.971Z,15.83
2023-01-19T14:05:33.734Z,15.37
2023-01-19T14:08:15.280Z,12.90
2023-01-19T14:11:02.473Z,14.90
2023-01-19T14:13:37.674Z,9.60
2023-01-19T14:16:16.200Z,11.60
2023-01-19T14:18:43.903Z,11.20
2023-01-19T14:21:15.931Z,13.03
2023-01-19T14:23:58.156Z,14.83
2023-01-19T14:26:46.761Z,13.10
2023-01-19T14:29:13.995Z,13.80
2023-01-19T14:31:47.444Z,16.63
2023-01-19T14:34:31.233Z,13.30
2023-01-19T14:36:59.186Z,15.53
2023-01-19T14:39:30.248Z,14.23
2023-01-19T14:42:01.208Z,14.47
2023-01-19T14:44:43.338Z,14.93
2023-01-19T14:47:33.794Z,16.97
2023-01-19T14:50:08.356Z,14.70
2023-01-19T14:52:39.907Z,14.33
2023-01-19T14:55:22.076Z,15.73
2023-01-19T14:57:49.365Z,14.60
2023-01-19T15:00:19.321Z,16.57
2023-01-19T15:02:47.638Z,13.40
2023-01-19T15:05:15.094Z,14.27
2023-01-19T15:07:45.775Z,11.87
2023-01-19T15:10:19.599Z,14.40
2023-01-19T15:12:47.880Z,18.77
2023-01-19T15:15:23.074Z,17.03
2023-01-19T15:17:50.903Z,15.33
2023-01-19T15:20:23.304Z,23.03
2023-01-19T15:22:50.909Z,14.80
2023-01-19T15:25:21.014Z,17.80
2023-01-19T15:27:49.092Z,19.00
2023-01-19T15:30:45.633Z,15.83
2023-01-19T15:33:25.729Z,19.67
2023-01-19T15:35:53.594Z,15.90
2023-01-19T15:38:28.046Z,18.57
2023-01-19T15:40:55.254Z,19.40
2023-01-19T15:43:22.714Z,14.90
2023-01-19T15:46:02.457Z,19.30
2023-01-19T15:48:29.771Z,17.60
2023-01-19T15:50:57.058Z,19.77
2023-01-19T15:53:25.684Z,14.77
2023-01-19T15:55:56.029Z,18.23
2023-01-19T15:58:27.128Z,17.40
2023-01-19T16:00:59.427Z,21.23
2023-01-19T16:03:28.501Z,18.43
2023-01-19T16:05:55.980Z,19.60
2023-01-19T16:08:23.500Z,16.53
2023-01-19T16:10:55.715Z,21.20
2023-01-19T16:13:24.632Z,23.60
2023-01-19T16:15:51.812Z,24.20
2023-01-19T16:18:19.614Z,80.67
2023-01-19T16:20:47.003Z,107.83
2023-01-19T16:23:17.572Z,73.43
2023-01-19T16:25:48.172Z,40.50
2023-01-19T16:28:16.202Z,43.97
2023-01-19T16:30:43.929Z,70.00
2023-01-19T16:33:16.307Z,87.17
2023-01-19T16:35:44.017Z,350.97
2023-01-19T16:38:11.656Z,255.33
2023-01-19T16:40:48.411Z,167.93
2023-01-19T16:43:17.568Z,142.43
2023-01-19T16:46:01.361Z,138.23
2023-01-19T16:48:34.740Z,132.13
2023-01-19T16:51:07.193Z,137.90
2023-01-19T16:53:35.697Z,165.87
2023-01-19T16:56:11.893Z,179.87
2023-01-19T16:58:42.743Z,170.07
2023-01-19T17:01:21.739Z,155.43
2023-01-19T17:03:49.133Z,168.97
2023-01-19T17:06:18.891Z,170.13
2023-01-19T17:08:47.155Z,157.53
2023-01-19T17:11:21.290Z,116.00
2023-01-19T17:13:50.881Z,79.27
2023-01-19T17:16:27.565Z,60.73
2023-01-19T17:18:58.982Z,54.20
2023-01-19T17:21:26.245Z,50.33
2023-01-19T17:23:55.100Z,42.50
2023-01-19T17:26:27.369Z,44.53
2023-01-19T17:29:03.294Z,44.97
2023-01-19T17:31:32.457Z,38.87
2023-01-19T17:34:00.310Z,37.23
2023-01-19T17:36:33.931Z,35.43
2023-01-19T17:39:05.511Z,38.13
2023-01-19T17:41:38.385Z,44.57
2023-01-19T17:44:07.234Z,47.53
2023-01-19T17:46:38.685Z,51.33
2023-01-19T17:49:08.412Z,45.53
2023-01-19T17:51:36.127Z,44.70
2023-01-19T17:54:04.819Z,42.33
2023-01-19T17:56:37.600Z,40.90
2023-01-19T17:59:08.182Z,39.23
2023-01-19T18:01:40.789Z,58.13
2023-01-19T18:04:09.430Z,66.50
2023-01-19T18:06:37.720Z,55.93
2023-01-19T18:09:07.059Z,52.60
2023-01-19T18:11:34.651Z,50.07
2023-01-19T18:14:02.578Z,50.13
2023-01-19T18:16:31.083Z,54.43
2023-01-19T18:18:58.704Z,50.00
2023-01-19T18:21:29.075Z,58.23
2023-01-19T18:24:02.773Z,48.57
2023-01-19T18:26:31.544Z,53.67
2023-01-19T18:28:59.594Z,52.97
2023-01-19T18:31:28.435Z,59.67
2023-01-19T18:33:55.860Z,70.37
2023-01-19T18:36:23.129Z,74.53
2023-01-19T18:38:50.662Z,88.07
2023-01-19T18:41:20.654Z,91.83
2023-01-19T18:43:52.299Z,109.20
2023-01-19T18:46:21.409Z,106.87
2023-01-19T18:48:48.601Z,128.23
2023-01-19T18:51:16.489Z,199.70
2023-01-19T18:53:45.121Z,235.37
2023-01-19T18:56:14.012Z,156.97
2023-01-19T18:58:41.604Z,139.13
2023-01-19T19:01:29.171Z,135.03
2023-01-19T19:03:58.045Z,164.20
2023-01-19T19:06:27.875Z,282.97
2023-01-19T19:08:57.647Z,379.13
2023-01-19T19:11:26.679Z,331.27
2023-01-19T19:13:58.984Z,160.10
2023-01-19T19:16:26.456Z,142.73
2023-01-19T19:18:53.706Z,99.77
2023-01-19T19:21:22.749Z,79.50
2023-01-19T19:23:56.219Z,60.50
2023-01-19T19:26:24.997Z,56.57
2023-01-19T19:28:52.302Z,63.70
2023-01-19T19:31:22.531Z,63.33
2023-01-19T19:33:51.451Z,85.47
2023-01-19T19:36:20.311Z,76.50
2023-01-19T19:38:48.892Z,74.60
2023-01-19T19:41:22.453Z,65.53
2023-01-19T19:43:50.233Z,72.10
2023-01-19T19:46:23.132Z,63.77
2023-01-19T19:48:51.173Z,60.90
2023-01-19T19:51:24.443Z,62.03
2023-01-19T19:53:53.295Z,62.57
2023-01-19T19:56:22.544Z,63.13
2023-01-19T19:58:50.705Z,64.40
2023-01-19T20:01:26.075Z,67.83
2023-01-19T20:03:54.554Z,67.63
2023-01-19T20:06:24.318Z,57.67
2023-01-19T20:08:54.093Z,64.50
2023-01-19T20:11:27.788Z,60.50
2023-01-19T20:13:55.478Z,66.43
2023-01-19T20:16:24.091Z,60.83
2023-01-19T20:18:54.380Z,60.37
2023-01-19T20:21:29.558Z,59.93
2023-01-19T20:24:00.141Z,58.03
2023-01-19T20:26:30.585Z,61.40
2023-01-19T20:29:00.169Z,63.13
2023-01-19T20:31:31.459Z,64.50
2023-01-19T20:34:01.306Z,60.60
2023-01-19T20:36:29.471Z,60.67
2023-01-19T20:38:57.831Z,61.03
2023-01-19T20:41:26.115Z,70.00
2023-01-19T20:43:53.477Z,67.30
2023-01-19T20:46:20.709Z,92.90
2023-01-19T20:48:53.099Z,125.53
2023-01-19T20:51:20.623Z,120.37
2023-01-19T20:53:48.417Z,106.17
2023-01-19T20:56:16.524Z,107.50
2023-01-19T20:58:43.935Z,126.40
2023-01-19T21:01:20.271Z,113.37
2023-01-19T21:03:48.608Z,135.17
2023-01-19T21:06:16.021Z,171.07
2023-01-19T21:08:43.696Z,179.83
2023-01-19T21:11:11.021Z,184.53
2023-01-19T21:13:38.938Z,135.57
2023-01-19T21:16:06.718Z,143.00
2023-01-19T21:18:33.910Z,166.63
2023-01-19T21:21:01.075Z,158.83
2023-01-19T21:23:29.062Z,149.97
2023-01-19T21:25:58.902Z,135.13
2023-01-19T21:28:27.294Z,147.13
2023-01-19T21:30:55.615Z,150.13
2023-01-19T21:33:23.642Z,148.57
2023-01-19T21:35:52.442Z,120.27
2023-01-19T21:38:19.875Z,106.67
2023-01-19T21:40:47.439Z,88.17
2023-01-19T21:43:14.763Z,97.47
2023-01-19T21:45:43.163Z,88.10
2023-01-19T21:48:11.127Z,86.53
2023-01-19T21:50:39.233Z,74.13
2023-01-19T21:53:09.644Z,81.33
2023-01-19T21:55:37.933Z,89.63
2023-01-19T21:58:05.777Z,85.77
2023-01-19T22:00:33.037Z,106.13
2023-01-19T22:03:04.287Z,102.03
2023-01-19T22:05:36.701Z,107.00
2023-01-19T22:08:04.956Z,109.50
2023-01-19T22:10:32.154Z,151.47
2023-01-19T22:12:59.378Z,148.80
2023-01-19T22:15:26.709Z,135.40
2023-01-19T22:17:53.842Z,137.03
2023-01-19T22:20:21.045Z,139.67
2023-01-19T22:22:48.653Z,141.97
2023-01-19T22:25:15.921Z,134.97
2023-01-19T22:27:43.102Z,130.73
2023-01-19T22:30:10.714Z,139.07
2023-01-19T22:32:37.904Z,131.43
2023-01-19T22:35:05.553Z,122.07
2023-01-19T22:37:36.670Z,186.33
2023-01-19T22:40:05.173Z,179.63
2023-01-19T22:42:32.735Z,135.63
2023-01-19T22:44:59.894Z,95.80
2023-01-19T22:47:27.028Z,72.67
2023-01-19T22:49:54.213Z,80.37
2023-01-19T22:52:21.366Z,66.30
2023-01-19T22:54:48.518Z,68.17
2023-01-19T22:57:15.636Z,76.00
2023-01-19T22:59:43.872Z,80.20
2023-01-19T23:02:12.566Z,77.73
2023-01-19T23:04:39.843Z,70.97
2023-01-19T23:07:09.598Z,69.53
2023-01-19T23:09:38.414Z,71.63
2023-01-19T23:12:05.771Z,94.90
2023-01-19T23:14:33.150Z,107.10
2023-01-19T23:17:00.367Z,174.83
2023-01-19T23:19:27.529Z,200.37
2023-01-19T23:21:55.314Z,207.60
2023-01-19T23:24:22.421Z,210.97
2023-01-19T23:26:50.735Z,211.50
2023-01-19T23:29:18.400Z,197.97
2023-01-19T23:31:51.144Z,130.83
2023-01-19T23:34:18.450Z,117.00
2023-01-19T23:36:45.954Z,104.93
2023-01-19T23:39:16.241Z,110.43
2023-01-19T23:41:43.459Z,101.97
2023-01-19T23:44:10.639Z,93.63
2023-01-19T23:46:38.079Z,79.33
2023-01-19T23:49:05.465Z,104.23
2023-01-19T23:51:33.548Z,79.90
2023-01-19T23:54:01.271Z,67.60
2023-01-19T23:56:34.437Z,71.30
2023-01-19T23:59:04.968Z,77.07
